createdAt,value
2023-04-23T00:01:25.819Z,27.57
2023-04-23T00:03:31.425Z,27.54
2023-04-23T00:05:36.915Z,28.13
2023-04-23T00:07:42.045Z,27.98
2023-04-23T00:09:47.039Z,27.33
2023-04-23T00:11:52.089Z,26.98
2023-04-23T00:13:57.084Z,27.66
2023-04-23T00:16:02.189Z,27.48
2023-04-23T00:18:07.146Z,27.74
2023-04-23T00:20:12.173Z,27.42
2023-04-23T00:22:17.297Z,27.26
2023-04-23T00:24:22.318Z,27.67
2023-04-23T00:26:27.337Z,27.48
2023-04-23T00:28:32.332Z,27.74
2023-04-23T00:30:37.346Z,27.81
2023-04-23T00:32:42.670Z,27.6
2023-04-23T00:34:47.664Z,27.45
2023-04-23T00:36:52.630Z,27.78
2023-04-23T00:38:57.669Z,27.52
2023-04-23T00:41:02.761Z,27.36
2023-04-23T00:43:07.785Z,27.87
2023-04-23T00:45:12.820Z,27.56
2023-04-23T00:47:17.877Z,27.95
2023-04-23T00:49:22.971Z,27.82
2023-04-23T00:51:27.982Z,27.49
2023-04-23T00:53:32.974Z,27.77
2023-04-23T00:55:38.032Z,27.58
2023-04-23T00:57:42.984Z,27.87
2023-04-23T00:59:47.976Z,27.89
2023-04-23T01:01:52.989Z,27.67
2023-04-23T01:03:58.863Z,27.81
2023-04-23T01:06:04.142Z,27.63
2023-04-23T01:08:09.167Z,27.62
2023-04-23T01:10:14.193Z,27.72
2023-04-23T01:12:19.228Z,27.25
2023-04-23T01:14:24.236Z,27.24
2023-04-23T01:16:29.486Z,27.38
2023-04-23T01:18:34.500Z,27.09
2023-04-23T01:20:39.637Z,27.48
2023-04-23T01:22:44.655Z,27.39
2023-04-23T01:24:49.633Z,27.49
2023-04-23T01:26:54.569Z,27.09
2023-04-23T01:28:59.542Z,27.35
2023-04-23T01:31:04.734Z,27.11
2023-04-23T01:33:09.745Z,27
2023-04-23T01:35:14.734Z,27.05
2023-04-23T01:37:19.859Z,27.13
2023-04-23T01:39:24.821Z,27.29
2023-04-23T01:41:29.946Z,27.08
2023-04-23T01:43:34.979Z,27.23
2023-04-23T01:45:40.073Z,27.32
2023-04-23T01:47:45.155Z,26.91
2023-04-23T01:49:50.222Z,27.19
2023-04-23T01:51:55.175Z,27.37
2023-04-23T01:54:00.205Z,27.86
2023-04-23T01:56:05.310Z,27.37
2023-04-23T01:58:10.312Z,27.25
2023-04-23T02:00:15.360Z,27.55
2023-04-23T02:02:20.572Z,27.38
2023-04-23T02:04:25.985Z,27.49
2023-04-23T02:06:31.643Z,27.22
2023-04-23T02:08:36.594Z,27.62
2023-04-23T02:10:41.677Z,27.57
2023-04-23T02:12:46.649Z,27.68
2023-04-23T02:14:51.677Z,27.54
2023-04-23T02:16:56.683Z,27.26
2023-04-23T02:19:01.831Z,27.27
2023-04-23T02:21:06.887Z,27.45
2023-04-23T02:23:11.846Z,27.25
2023-04-23T02:25:16.835Z,27.29
2023-04-23T02:27:21.978Z,27.34
2023-04-23T02:29:26.966Z,27.33
2023-04-23T02:31:32.134Z,27.2
2023-04-23T02:33:37.106Z,27.65
2023-04-23T02:35:42.133Z,27.26
2023-04-23T02:37:47.145Z,27.25
2023-04-23T02:39:52.093Z,27.14
2023-04-23T02:41:57.114Z,27.02
2023-04-23T02:44:02.104Z,26.93
2023-04-23T02:46:07.085Z,27.01
2023-04-23T02:48:12.085Z,26.91
2023-04-23T02:50:17.146Z,27.09
2023-04-23T02:52:22.174Z,27.01
2023-04-23T02:54:27.254Z,26.82
2023-04-23T02:56:32.333Z,26.93
2023-04-23T02:58:37.311Z,26.89
2023-04-23T03:00:42.477Z,26.84
2023-04-23T03:02:48.263Z,26.81
2023-04-23T03:04:53.325Z,26.83
2023-04-23T03:06:58.320Z,27.08
2023-04-23T03:09:03.473Z,27.17
2023-04-23T03:11:08.466Z,27.2
2023-04-23T03:13:13.498Z,26.99
2023-04-23T03:15:18.451Z,27
2023-04-23T03:17:23.575Z,27.02
2023-04-23T03:19:28.738Z,27.08
2023-04-23T03:21:33.836Z,27.06
2023-04-23T03:23:38.970Z,27.09
2023-04-23T03:25:43.940Z,27.25
2023-04-23T03:27:48.943Z,27.12
2023-04-23T03:29:53.912Z,27.34
2023-04-23T03:31:58.985Z,27.08
2023-04-23T03:36:08.936Z,27.29
2023-04-23T03:38:13.926Z,26.97
2023-04-23T03:40:18.923Z,27.14
2023-04-23T03:42:24.041Z,27.18
2023-04-23T03:44:29.061Z,26.91
2023-04-23T03:46:34.490Z,26.99
2023-04-23T03:48:39.534Z,26.91
2023-04-23T03:50:44.500Z,27.28
2023-04-23T03:52:49.486Z,27.18
2023-04-23T03:54:54.468Z,27.19
2023-04-23T03:56:59.474Z,27.38
2023-04-23T03:59:04.554Z,27.43
2023-04-23T04:01:09.522Z,27.27
2023-04-23T04:03:15.170Z,27.42
2023-04-23T04:05:20.734Z,27.39
2023-04-23T04:07:25.929Z,27.7
2023-04-23T04:09:30.918Z,28.01
2023-04-23T04:11:35.942Z,27.62
2023-04-23T04:13:41.020Z,27.43
2023-04-23T04:15:46.165Z,27.33
2023-04-23T04:17:51.376Z,27.51
2023-04-23T04:19:56.333Z,27.58
2023-04-23T04:22:01.429Z,27.48
2023-04-23T04:24:06.393Z,27.89
2023-04-23T04:26:11.333Z,27.65
2023-04-23T04:28:16.316Z,27.43
2023-04-23T04:30:21.478Z,27.58
2023-04-23T04:32:26.669Z,27.76
2023-04-23T04:34:31.753Z,27.52
2023-04-23T04:36:36.764Z,27.57
2023-04-23T04:38:41.897Z,27.37
2023-04-23T04:40:46.849Z,27.37
2023-04-23T04:42:51.855Z,27.5
2023-04-23T04:44:56.855Z,27.63
2023-04-23T04:47:02.132Z,27.84
2023-04-23T04:49:07.183Z,27.31
2023-04-23T04:51:12.252Z,27.4
2023-04-23T04:53:17.240Z,27.38
2023-04-23T04:55:22.288Z,27.48
2023-04-23T04:57:27.282Z,27.49
2023-04-23T04:59:32.255Z,27.25
2023-04-23T05:01:37.587Z,27.33
2023-04-23T05:03:43.190Z,27.39
2023-04-23T05:05:48.264Z,27.51
2023-04-23T05:07:53.255Z,27.45
2023-04-23T05:09:58.295Z,27.54
2023-04-23T05:12:03.277Z,27.84
2023-04-23T05:14:08.305Z,27.73
2023-04-23T05:16:13.460Z,27.62
2023-04-23T05:18:18.471Z,27.49
2023-04-23T05:20:23.483Z,27.63
2023-04-23T05:22:28.473Z,27.46
2023-04-23T05:24:33.552Z,27.97
2023-04-23T05:26:38.529Z,27.77
2023-04-23T05:28:43.596Z,27.43
2023-04-23T05:30:48.654Z,27.49
2023-04-23T05:32:53.874Z,27.86
2023-04-23T05:34:58.859Z,27.93
2023-04-23T05:37:03.833Z,27.49
2023-04-23T05:39:08.805Z,27.86
2023-04-23T05:41:13.809Z,27.67
2023-04-23T05:43:18.821Z,27.94
2023-04-23T05:45:23.838Z,27.91
2023-04-23T05:47:29.033Z,28.04
2023-04-23T05:49:34.005Z,28.21
2023-04-23T05:51:39.092Z,28.03
2023-04-23T05:53:44.057Z,28.87
2023-04-23T05:55:49.053Z,28.93
2023-04-23T05:57:54.044Z,28.52
2023-04-23T05:59:59.169Z,28.45
2023-04-23T06:02:04.218Z,28.37
2023-04-23T06:04:10.026Z,28.05
2023-04-23T06:06:15.169Z,28.4
2023-04-23T06:08:20.131Z,28.21
2023-04-23T06:10:25.247Z,28.44
2023-04-23T06:12:30.264Z,28
2023-04-23T06:14:35.241Z,28.33
2023-04-23T06:16:40.313Z,28.22
2023-04-23T06:18:45.360Z,27.97
2023-04-23T06:20:50.382Z,29.17
2023-04-23T06:22:55.406Z,28.37
2023-04-23T06:25:00.397Z,28.22
2023-04-23T06:27:05.581Z,29.28
2023-04-23T06:29:10.500Z,29.71
2023-04-23T06:31:15.620Z,28.83
2023-04-23T06:33:20.650Z,28.76
2023-04-23T06:35:25.656Z,28.73
2023-04-23T06:37:32.326Z,28.86
2023-04-23T06:39:37.415Z,28.85
2023-04-23T06:41:42.497Z,28.69
2023-04-23T06:43:47.637Z,29.05
2023-04-23T06:45:52.695Z,29.26
2023-04-23T06:47:57.842Z,29.49
2023-04-23T06:50:02.917Z,29.75
2023-04-23T06:52:07.895Z,29.67
2023-04-23T06:54:13.044Z,29.9
2023-04-23T06:56:18.101Z,29.88
2023-04-23T06:58:23.104Z,29.54
2023-04-23T07:00:28.169Z,29.81
2023-04-23T07:02:33.421Z,29.64
2023-04-23T07:04:38.824Z,29.58
2023-04-23T07:06:43.927Z,29.75
2023-04-23T07:08:49.001Z,29.95
2023-04-23T07:10:53.998Z,29.85
2023-04-23T07:12:59.000Z,29.92
2023-04-23T07:15:04.272Z,30.07
2023-04-23T07:17:09.573Z,30.08
2023-04-23T07:19:14.653Z,30.33
2023-04-23T07:21:19.667Z,30.35
2023-04-23T07:23:24.708Z,30.44
2023-04-23T07:25:29.930Z,30.75
2023-04-23T07:27:34.902Z,30.52
2023-04-23T07:29:39.931Z,30.7
2023-04-23T07:31:45.093Z,30.86
2023-04-23T07:33:50.122Z,31.06
2023-04-23T07:35:55.408Z,31.23
2023-04-23T07:38:00.659Z,31.16
2023-04-23T07:40:05.748Z,31.4
2023-04-23T07:42:10.744Z,31.56
2023-04-23T07:44:15.814Z,31.66
2023-04-23T07:46:20.987Z,31.62
2023-04-23T07:48:26.063Z,31.67
2023-04-23T07:50:31.260Z,31.84
2023-04-23T07:52:36.332Z,31.83
2023-04-23T07:54:41.349Z,31.92
2023-04-23T07:56:46.360Z,31.9
2023-04-23T07:58:51.344Z,32.13
2023-04-23T08:00:56.446Z,32.23
2023-04-23T08:03:01.906Z,32.22
2023-04-23T08:05:07.572Z,32.37
2023-04-23T08:07:12.804Z,32.52
2023-04-23T08:09:17.777Z,32.58
2023-04-23T08:11:22.800Z,32.55
2023-04-23T08:13:27.818Z,32.74
2023-04-23T08:15:32.920Z,32.88
2023-04-23T08:17:38.069Z,32.95
2023-04-23T08:19:44.101Z,33.07
2023-04-23T08:21:49.287Z,32.97
2023-04-23T08:23:54.253Z,33.21
2023-04-23T08:25:59.278Z,33.12
2023-04-23T08:28:04.244Z,32.88
2023-04-23T08:30:09.790Z,32.98
2023-04-23T08:32:15.071Z,32.91
2023-04-23T08:34:20.116Z,33
2023-04-23T08:36:25.135Z,32.75
2023-04-23T08:38:30.141Z,32.53
2023-04-23T08:40:35.222Z,32.44
2023-04-23T08:42:40.228Z,32.51
2023-04-23T08:44:45.201Z,32.76
2023-04-23T08:46:50.336Z,32.85
2023-04-23T08:48:55.385Z,33.46
2023-04-23T08:51:00.381Z,33.65
2023-04-23T08:53:05.388Z,33.11
2023-04-23T08:55:10.386Z,32.66
2023-04-23T08:57:15.436Z,32.42
2023-04-23T08:59:20.501Z,32.37
2023-04-23T09:01:25.779Z,32.49
2023-04-23T09:03:31.323Z,32.28
2023-04-23T09:05:36.394Z,32.04
2023-04-23T09:07:41.397Z,31.69
2023-04-23T09:09:46.828Z,31.34
2023-04-23T09:11:54.978Z,31.25
2023-04-23T09:14:00.155Z,31.5
2023-04-23T09:16:05.231Z,31.22
2023-04-23T09:18:11.528Z,30.95
2023-04-23T09:20:16.785Z,31.08
2023-04-23T09:22:21.895Z,30.78
2023-04-23T09:24:26.921Z,31.16
2023-04-23T09:26:31.996Z,30.84
2023-04-23T09:28:37.119Z,30.83
2023-04-23T09:30:42.222Z,31.19
2023-04-23T09:32:47.600Z,31.55
2023-04-23T09:34:52.664Z,31.38
2023-04-23T09:36:57.822Z,31
2023-04-23T09:39:02.849Z,31.02
2023-04-23T09:41:07.853Z,30.94
2023-04-23T09:43:12.916Z,30.97
2023-04-23T09:45:17.950Z,31.02
2023-04-23T09:47:26.304Z,31.11
2023-04-23T09:49:31.291Z,31.18
2023-04-23T09:51:36.323Z,31.39
2023-04-23T09:53:42.709Z,31.44
2023-04-23T09:55:47.727Z,31.35
2023-04-23T09:57:52.769Z,31.52
2023-04-23T10:00:15.498Z,31.51
2023-04-23T10:02:22.955Z,31.56
2023-04-23T10:04:28.794Z,31.71
2023-04-23T10:07:17.148Z,31.62
2023-04-23T10:09:22.911Z,31.67
2023-04-23T10:11:27.926Z,31.71
2023-04-23T10:13:33.056Z,31.64
2023-04-23T10:15:38.492Z,31.54
2023-04-23T10:17:43.823Z,31.33
2023-04-23T10:19:49.606Z,31.04
2023-04-23T10:22:20.018Z,31.1
2023-04-23T10:24:25.401Z,31.58
2023-04-23T10:26:30.456Z,31.47
2023-04-23T10:28:35.612Z,31.35
2023-04-23T10:30:40.636Z,31.93
2023-04-23T10:32:45.794Z,31.73
2023-04-23T10:34:50.821Z,31.58
2023-04-23T10:36:55.847Z,32
2023-04-23T10:39:03.455Z,31.79
2023-04-23T10:41:08.493Z,32
2023-04-23T10:43:13.450Z,31.89
2023-04-23T10:45:27.220Z,32.55
2023-04-23T10:47:32.294Z,31.83
2023-04-23T10:49:37.693Z,31.75
2023-04-23T10:53:56.706Z,31.69
2023-04-23T10:56:01.745Z,31.63
2023-04-23T10:58:07.030Z,31.45
2023-04-23T11:00:12.027Z,31.41
2023-04-23T11:02:17.552Z,31.41
2023-04-23T11:04:23.560Z,31.35
2023-04-23T11:06:28.730Z,31.61
2023-04-23T11:08:33.751Z,31.99
2023-04-23T11:10:38.866Z,32.37
2023-04-23T11:12:43.891Z,32.14
2023-04-23T11:14:48.941Z,31.87
2023-04-23T11:16:54.229Z,31.93
2023-04-23T11:18:59.363Z,32.49
2023-04-23T11:21:04.510Z,32.52
2023-04-23T11:23:09.511Z,33.01
2023-04-23T11:25:14.671Z,32.72
2023-04-23T11:27:19.789Z,32.76
2023-04-23T11:29:24.864Z,32.36
2023-04-23T11:31:30.018Z,32.22
2023-04-23T11:33:35.120Z,32.21
2023-04-23T11:35:40.222Z,32.23
2023-04-23T11:37:45.297Z,32.34
2023-04-23T11:39:50.314Z,32.7
2023-04-23T11:41:56.398Z,32.53
2023-04-23T11:44:01.332Z,32.65
2023-04-23T11:46:06.579Z,32.83
2023-04-23T11:48:11.597Z,32.58
2023-04-23T11:50:16.706Z,32.86
2023-04-23T11:52:21.722Z,32.84
2023-04-23T11:54:26.773Z,32.69
2023-04-23T11:56:31.859Z,32.44
2023-04-23T11:58:39.338Z,32.35
2023-04-23T12:00:44.415Z,32.07
2023-04-23T12:02:49.895Z,32.27
2023-04-23T12:04:55.131Z,32.16
2023-04-23T12:07:00.414Z,32.29
2023-04-23T12:09:05.507Z,32.54
2023-04-23T12:11:10.488Z,32.57
2023-04-23T12:13:15.579Z,32.6
2023-04-23T12:15:20.634Z,32.65
2023-04-23T12:17:25.849Z,32.68
2023-04-23T12:19:30.898Z,32.73
2023-04-23T12:21:35.994Z,33.1
2023-04-23T12:23:41.168Z,33.22
2023-04-23T12:25:46.277Z,33.04
2023-04-23T12:27:51.258Z,33.26
2023-04-23T12:29:56.315Z,33.23
2023-04-23T12:32:01.467Z,33.45
2023-04-23T12:34:06.551Z,33.8
2023-04-23T12:36:11.570Z,34.12
2023-04-23T12:38:16.632Z,34.25
2023-04-23T12:40:21.623Z,33.9
2023-04-23T12:42:26.774Z,33.7
2023-04-23T12:44:31.967Z,33.81
2023-04-23T12:46:37.278Z,33.86
2023-04-23T12:48:42.372Z,33.87
2023-04-23T12:50:47.324Z,34.07
2023-04-23T12:52:52.300Z,34.2
2023-04-23T12:54:57.904Z,33.99
2023-04-23T12:57:02.849Z,33.88
2023-04-23T12:59:07.872Z,33.71
2023-04-23T13:01:13.305Z,33.76
2023-04-23T13:03:18.630Z,34.01
2023-04-23T13:05:23.616Z,34.19
2023-04-23T13:07:28.590Z,34.48
2023-04-23T13:09:33.638Z,34.43
2023-04-23T13:11:38.644Z,34.52
2023-04-23T13:13:43.811Z,34.7
2023-04-23T13:15:49.598Z,34.48
2023-04-23T13:17:54.759Z,34.36
2023-04-23T13:19:59.923Z,34.42
2023-04-23T13:22:04.937Z,34.42
2023-04-23T13:24:10.182Z,34.13
2023-04-23T13:26:15.164Z,33.86
2023-04-23T13:28:20.248Z,33.84
2023-04-23T13:30:25.309Z,34.17
2023-04-23T13:32:30.387Z,34.44
2023-04-23T13:34:35.518Z,34.19
2023-04-23T13:36:40.555Z,34.12
2023-04-23T13:38:45.523Z,34.12
2023-04-23T13:40:50.586Z,34.01
2023-04-23T13:42:55.618Z,34.14
2023-04-23T13:45:00.709Z,34.15
2023-04-23T13:47:05.760Z,34.33
2023-04-23T13:49:10.849Z,34.33
2023-04-23T13:51:37.156Z,34.2
2023-04-23T13:53:42.174Z,34.57
2023-04-23T13:55:47.298Z,34.66
2023-04-23T13:57:52.263Z,34.69
2023-04-23T13:59:57.221Z,34.42
2023-04-23T14:02:02.274Z,34.39
2023-04-23T14:04:07.437Z,34.89
2023-04-23T14:06:12.442Z,34.66
2023-04-23T14:08:17.470Z,34.68
2023-04-23T14:10:22.467Z,34.49
2023-04-23T14:12:27.468Z,34.55
2023-04-23T14:14:32.495Z,34.54
2023-04-23T14:16:37.490Z,34.7
2023-04-23T14:18:42.589Z,34.33
2023-04-23T14:20:47.620Z,33.99
2023-04-23T14:22:52.758Z,33.92
2023-04-23T14:24:57.714Z,34.03
2023-04-23T14:27:05.742Z,34.07
2023-04-23T14:29:10.942Z,34.01
2023-04-23T14:31:15.998Z,34.16
2023-04-23T14:33:21.059Z,34.27
2023-04-23T14:35:44.755Z,34.36
2023-04-23T14:37:49.728Z,34.49
2023-04-23T14:39:54.850Z,34.65
2023-04-23T14:41:59.890Z,34.86
2023-04-23T14:44:04.899Z,34.99
2023-04-23T14:46:10.069Z,35.16
2023-04-23T14:48:15.129Z,35.46
2023-04-23T14:50:20.202Z,35.54
2023-04-23T14:52:25.195Z,35.72
2023-04-23T14:54:30.226Z,35.78
2023-04-23T14:56:35.241Z,35.94
2023-04-23T14:58:40.235Z,36.07
2023-04-23T15:00:45.241Z,36.11
2023-04-23T15:02:50.578Z,36.15
2023-04-23T15:04:55.641Z,36.35
2023-04-23T15:07:00.743Z,36.35
2023-04-23T15:09:05.834Z,36.24
2023-04-23T15:11:10.905Z,36.22
2023-04-23T15:13:15.904Z,36.4
2023-04-23T15:15:25.620Z,37.33
2023-04-23T15:17:35.690Z,37.58
2023-04-23T15:19:41.133Z,37.68
2023-04-23T15:21:46.353Z,38.2
2023-04-23T15:23:51.430Z,37.96
2023-04-23T15:25:56.456Z,38.46
2023-04-23T15:28:01.421Z,38.34
2023-04-23T15:30:06.448Z,38.49
2023-04-23T15:32:11.718Z,38.83
2023-04-23T15:34:16.777Z,38.75
2023-04-23T15:36:21.950Z,39.12
2023-04-23T15:38:27.063Z,39.18
2023-04-23T15:40:32.239Z,39.36
2023-04-23T15:42:37.227Z,40.02
2023-04-23T15:44:42.285Z,40.02
2023-04-23T15:46:47.495Z,40.58
2023-04-23T15:48:52.576Z,41.28
2023-04-23T15:50:57.634Z,41.59
2023-04-23T15:53:02.704Z,41.24
2023-04-23T15:55:07.768Z,41.48
2023-04-23T15:57:12.769Z,41.07
2023-04-23T15:59:17.764Z,41
2023-04-23T16:01:24.231Z,40.82
2023-04-23T16:03:31.376Z,40.71
2023-04-23T16:05:36.456Z,40.82
2023-04-23T16:07:41.445Z,41.38
2023-04-23T16:09:46.810Z,41.31
2023-04-23T16:11:51.899Z,41.44
2023-04-23T16:13:57.039Z,41.68
2023-04-23T16:16:02.061Z,41.43
2023-04-23T16:18:07.374Z,41.47
2023-04-23T16:20:12.507Z,41.72
2023-04-23T16:22:17.539Z,41.74
2023-04-23T16:24:22.648Z,41.79
2023-04-23T16:26:27.652Z,41.7
2023-04-23T16:28:32.697Z,41.67
2023-04-23T16:30:37.750Z,42.13
2023-04-23T16:32:42.912Z,41.92
2023-04-23T16:34:47.935Z,42.13
2023-04-23T16:36:53.057Z,42.64
2023-04-23T16:38:58.064Z,43.01
2023-04-23T16:41:03.197Z,43.23
2023-04-23T16:43:08.298Z,44.01
2023-04-23T16:45:13.365Z,44.48
2023-04-23T16:47:18.409Z,44.57
2023-04-23T16:49:23.476Z,44.49
2023-04-23T16:51:28.693Z,44.07
2023-04-23T16:53:34.729Z,43.74
2023-04-23T16:55:40.039Z,43.62
2023-04-23T16:57:45.161Z,43.71
2023-04-23T16:59:50.479Z,43.42
2023-04-23T17:01:56.362Z,43.23
2023-04-23T17:04:01.940Z,43.23
2023-04-23T17:06:07.104Z,42.9
2023-04-23T17:08:12.102Z,42.74
2023-04-23T17:10:17.129Z,42.65
2023-04-23T17:12:22.219Z,42.63
2023-04-23T17:14:27.268Z,42.35
2023-04-23T17:16:32.714Z,42.35
2023-04-23T17:18:37.796Z,42.79
2023-04-23T17:20:42.809Z,42.82
2023-04-23T17:22:47.920Z,42.94
2023-04-23T17:24:52.948Z,42.79
2023-04-23T17:26:58.065Z,42.72
2023-04-23T17:29:03.108Z,42.34
2023-04-23T17:31:08.101Z,42.29
2023-04-23T17:33:13.218Z,42.18
2023-04-23T17:35:18.205Z,42.07
2023-04-23T17:37:23.205Z,42.21
2023-04-23T17:39:28.282Z,41.93
2023-04-23T17:41:33.316Z,41.87
2023-04-23T17:43:38.386Z,41.93
2023-04-23T17:45:43.445Z,41.66
2023-04-23T17:47:48.622Z,41.54
2023-04-23T17:49:53.715Z,41.39
2023-04-23T17:51:58.891Z,41.21
2023-04-23T17:54:04.755Z,41.42
2023-04-23T17:56:09.778Z,41.44
2023-04-23T17:58:14.845Z,41.12
2023-04-23T18:00:19.881Z,41.17
2023-04-23T18:02:25.227Z,41.03
2023-04-23T18:04:30.609Z,40.93
2023-04-23T18:06:35.912Z,40.83
2023-04-23T18:08:44.326Z,40.9
2023-04-23T18:10:49.466Z,41.03
2023-04-23T18:12:54.567Z,41
2023-04-23T18:14:59.701Z,40.66
2023-04-23T18:17:05.030Z,40.61
2023-04-23T18:19:10.287Z,40.3
2023-04-23T18:21:15.442Z,40.55
2023-04-23T18:23:20.665Z,40.57
2023-04-23T18:25:25.812Z,40.53
2023-04-23T18:27:34.119Z,40.3
2023-04-23T18:29:39.421Z,40.36
2023-04-23T18:31:44.530Z,40.23
2023-04-23T18:33:49.596Z,40.07
2023-04-23T18:35:54.640Z,40.01
2023-04-23T18:37:59.696Z,39.99
2023-04-23T18:40:04.740Z,39.83
2023-04-23T18:42:09.717Z,39.79
2023-04-23T18:44:14.750Z,39.69
2023-04-23T18:46:20.015Z,39.66
2023-04-23T18:48:25.050Z,39.64
2023-04-23T18:50:30.241Z,39.75
2023-04-23T18:52:35.260Z,39.59
2023-04-23T18:54:40.321Z,39.66
2023-04-23T18:56:45.465Z,39.92
2023-04-23T18:58:50.500Z,39.73
2023-04-23T19:00:55.558Z,39.75
2023-04-23T19:03:06.571Z,39.71
2023-04-23T19:05:14.405Z,39.52
2023-04-23T19:07:19.477Z,39.69
2023-04-23T19:09:24.473Z,39.69
2023-04-23T19:11:29.520Z,40.25
2023-04-23T19:13:34.524Z,40.14
2023-04-23T19:15:39.879Z,39.82
2023-04-23T19:17:45.069Z,39.62
2023-04-23T19:19:50.048Z,39.5
2023-04-23T19:21:55.054Z,39.31
2023-04-23T19:23:59.978Z,39.14
2023-04-23T19:26:04.965Z,39.06
2023-04-23T19:28:09.942Z,38.93
2023-04-23T19:30:14.947Z,38.77
2023-04-23T19:32:19.976Z,38.67
2023-04-23T19:34:25.069Z,38.56
2023-04-23T19:36:30.109Z,38.51
2023-04-23T19:38:35.102Z,38.49
2023-04-23T19:40:40.104Z,38.46
2023-04-23T19:42:45.163Z,38.45
2023-04-23T19:44:50.234Z,38.51
2023-04-23T19:46:55.427Z,38.68
2023-04-23T19:49:00.440Z,38.63
2023-04-23T19:51:05.497Z,38.55
2023-04-23T19:53:10.637Z,38.5
2023-04-23T19:55:15.680Z,38.57
2023-04-23T19:57:20.854Z,38.54
2023-04-23T19:59:25.882Z,38.47
2023-04-23T20:01:31.519Z,38.47
2023-04-23T20:03:37.203Z,38.47
2023-04-23T20:05:42.484Z,38.39
2023-04-23T20:07:47.566Z,38.38
2023-04-23T20:09:52.579Z,38.38
2023-04-23T20:11:57.610Z,38.34
2023-04-23T20:14:02.616Z,38.26
2023-04-23T20:16:07.649Z,38.27
2023-04-23T20:18:12.925Z,38.21
2023-04-23T20:20:18.076Z,38.18
2023-04-23T20:22:23.197Z,38.38
2023-04-23T20:24:28.361Z,38.56
2023-04-23T20:26:33.563Z,38.64
2023-04-23T20:28:38.802Z,38.62
2023-04-23T20:30:43.956Z,38.7
2023-04-23T20:32:49.204Z,38.54
2023-04-23T20:34:54.272Z,38.46
2023-04-23T20:36:59.384Z,38.35
2023-04-23T20:39:04.566Z,38.33
2023-04-23T20:41:12.471Z,38.35
2023-04-23T20:43:17.493Z,38.81
2023-04-23T20:45:22.507Z,38.8
2023-04-23T20:47:27.788Z,38.97
2023-04-23T20:49:32.983Z,39.19
2023-04-23T20:51:37.948Z,39.28
2023-04-23T20:53:42.961Z,39.31
2023-04-23T20:55:47.942Z,39.32
2023-04-23T20:57:53.011Z,39.32
2023-04-23T20:59:58.017Z,39.45
2023-04-23T21:02:03.152Z,39.33
2023-04-23T21:04:08.841Z,39.25
2023-04-23T21:06:14.017Z,39.27
2023-04-23T21:08:19.069Z,39.3
2023-04-23T21:10:24.053Z,39.48
2023-04-23T21:12:29.033Z,39.1
2023-04-23T21:14:34.102Z,38.87
2023-04-23T21:16:39.468Z,38.99
2023-04-23T21:18:44.519Z,38.94
2023-04-23T21:20:49.571Z,38.92
2023-04-23T21:22:54.596Z,38.84
2023-04-23T21:24:59.745Z,39.07
2023-04-23T21:27:04.891Z,38.93
2023-04-23T21:29:09.890Z,39.07
2023-04-23T21:31:15.174Z,39.07
2023-04-23T21:33:20.228Z,39.06
2023-04-23T21:35:25.250Z,39.08
2023-04-23T21:37:30.201Z,39.2
2023-04-23T21:39:35.266Z,39.13
2023-04-23T21:41:40.247Z,39.01
2023-04-23T21:43:45.224Z,39.57
2023-04-23T21:45:50.235Z,39.71
2023-04-23T21:47:55.491Z,39.84
2023-04-23T21:50:00.582Z,39.96
2023-04-23T21:52:05.565Z,40.15
2023-04-23T21:54:10.761Z,40.06
2023-04-23T21:56:15.757Z,40.25
2023-04-23T21:58:20.806Z,40.03
2023-04-23T22:00:25.808Z,40.02
2023-04-23T22:02:31.282Z,40.1
2023-04-23T22:04:36.530Z,40.04
2023-04-23T22:06:41.628Z,40.31
2023-04-23T22:08:46.724Z,40.35
2023-04-23T22:10:51.733Z,40.39
2023-04-23T22:12:56.684Z,40.43
2023-04-23T22:15:01.773Z,40.32
2023-04-23T22:17:06.961Z,40.33
2023-04-23T22:19:11.991Z,40.32
2023-04-23T22:21:17.014Z,40.37
2023-04-23T22:23:22.100Z,40.25
2023-04-23T22:25:27.100Z,40.2
2023-04-23T22:27:34.795Z,40.18
2023-04-23T22:29:39.981Z,40.23
2023-04-23T22:31:45.150Z,40.23
2023-04-23T22:33:50.202Z,40.33
2023-04-23T22:35:55.209Z,40.21
2023-04-23T22:38:00.352Z,40.17
2023-04-23T22:40:05.441Z,40.19
2023-04-23T22:42:10.742Z,40.4
2023-04-23T22:44:15.893Z,40.32
2023-04-23T22:46:21.219Z,40.21
2023-04-23T22:48:26.325Z,40.18
2023-04-23T22:50:31.457Z,40.14
2023-04-23T22:52:36.509Z,40.19
2023-04-23T22:54:41.530Z,40.24
2023-04-23T22:56:46.608Z,40.2
2023-04-23T22:58:51.630Z,40.11
2023-04-23T23:00:56.748Z,40.07
2023-04-23T23:03:02.076Z,40.21
2023-04-23T23:05:07.156Z,40.3
2023-04-23T23:07:12.347Z,40.15
2023-04-23T23:09:17.364Z,40.21
2023-04-23T23:11:22.362Z,40.18
2023-04-23T23:13:27.481Z,40.22
2023-04-23T23:15:33.911Z,40.25
2023-04-23T23:17:39.088Z,40.3
2023-04-23T23:19:45.050Z,40.15
2023-04-23T23:21:50.488Z,40.23
2023-04-23T23:23:55.471Z,40.25
2023-04-23T23:26:02.513Z,40.4
2023-04-23T23:28:07.563Z,40.27
2023-04-23T23:30:12.716Z,40.2
2023-04-23T23:32:17.802Z,40.51
2023-04-23T23:34:22.793Z,40.28
2023-04-23T23:36:27.783Z,40.39
2023-04-23T23:38:32.765Z,40.37
2023-04-23T23:40:37.879Z,40.35
2023-04-23T23:42:42.941Z,40.27
2023-04-23T23:44:47.925Z,40.14
2023-04-23T23:46:53.017Z,40.25
2023-04-23T23:48:58.111Z,40.12
2023-04-23T23:51:03.129Z,40.11
2023-04-23T23:53:08.116Z,40.02
2023-04-23T23:55:13.203Z,40.11
2023-04-23T23:57:18.293Z,40.03
2023-04-23T23:59:23.344Z,40.06
